sensor_id;sensor_type;location;lat;lon;timestamp;temperature;humidity
27795;DHT22;15176;50.844;4.412;2023-05-07T00:01:13;19.20;99.90
27795;DHT22;15176;50.844;4.412;2023-05-07T00:03:39;19.30;99.90
27795;DHT22;15176;50.844;4.412;2023-05-07T00:06:05;19.40;99.90
27795;DHT22;15176;50.844;4.412;2023-05-07T00:08:31;19.50;99.90
27795;DHT22;15176;50.844;4.412;2023-05-07T00:10:56;19.70;99.90
27795;DHT22;15176;50.844;4.412;2023-05-07T00:13:22;19.70;99.90
27795;DHT22;15176;50.844;4.412;2023-05-07T00:15:48;19.60;99.90
27795;DHT22;15176;50.844;4.412;2023-05-07T00:18:13;19.60;99.90
27795;DHT22;15176;50.844;4.412;2023-05-07T00:20:39;19.70;99.90
27795;DHT22;15176;50.844;4.412;2023-05-07T00:23:05;19.80;99.90
27795;DHT22;15176;50.844;4.412;2023-05-07T00:25:30;19.60;99.90
27795;DHT22;15176;50.844;4.412;2023-05-07T00:27:56;19.50;99.90
27795;DHT22;15176;50.844;4.412;2023-05-07T00:30:28;19.50;99.90
27795;DHT22;15176;50.844;4.412;2023-05-07T00:32:53;19.60;99.90
27795;DHT22;15176;50.844;4.412;2023-05-07T00:35:19;19.90;99.90
27795;DHT22;15176;50.844;4.412;2023-05-07T00:37:46;19.80;99.90
27795;DHT22;15176;50.844;4.412;2023-05-07T00:40:11;19.50;99.90
27795;DHT22;15176;50.844;4.412;2023-05-07T00:42:37;19.50;99.90
27795;DHT22;15176;50.844;4.412;2023-05-07T00:45:03;19.60;99.90
27795;DHT22;15176;50.844;4.412;2023-05-07T00:47:29;19.30;99.90
27795;DHT22;15176;50.844;4.412;2023-05-07T00:49:58;19.30;99.90
27795;DHT22;15176;50.844;4.412;2023-05-07T00:52:25;19.50;99.90
27795;DHT22;15176;50.844;4.412;2023-05-07T00:54:51;19.40;99.90
27795;DHT22;15176;50.844;4.412;2023-05-07T00:57:19;19.50;99.90
27795;DHT22;15176;50.844;4.412;2023-05-07T00:59:46;19.40;99.90
27795;DHT22;15176;50.844;4.412;2023-05-07T01:02:12;19.30;99.90
27795;DHT22;15176;50.844;4.412;2023-05-07T01:04:37;19.30;99.90
27795;DHT22;15176;50.844;4.412;2023-05-07T01:07:03;19.40;99.90
27795;DHT22;15176;50.844;4.412;2023-05-07T01:09:29;19.40;99.90
27795;DHT22;15176;50.844;4.412;2023-05-07T01:11:56;19.30;99.90
27795;DHT22;15176;50.844;4.412;2023-05-07T01:14:23;19.50;99.90
27795;DHT22;15176;50.844;4.412;2023-05-07T01:16:49;19.40;99.90
27795;DHT22;15176;50.844;4.412;2023-05-07T01:19:18;19.40;99.90
27795;DHT22;15176;50.844;4.412;2023-05-07T01:21:48;19.50;99.90
27795;DHT22;15176;50.844;4.412;2023-05-07T01:24:15;19.60;99.90
27795;DHT22;15176;50.844;4.412;2023-05-07T01:26:42;19.40;99.90
27795;DHT22;15176;50.844;4.412;2023-05-07T01:29:08;19.40;99.90
27795;DHT22;15176;50.844;4.412;2023-05-07T01:31:34;19.40;99.90
27795;DHT22;15176;50.844;4.412;2023-05-07T01:34:02;19.30;99.90
27795;DHT22;15176;50.844;4.412;2023-05-07T01:36:29;19.30;99.90
27795;DHT22;15176;50.844;4.412;2023-05-07T01:38:55;19.40;99.90
27795;DHT22;15176;50.844;4.412;2023-05-07T01:41:23;19.40;99.90
27795;DHT22;15176;50.844;4.412;2023-05-07T01:43:50;19.20;99.90
27795;DHT22;15176;50.844;4.412;2023-05-07T01:46:18;18.90;99.90
27795;DHT22;15176;50.844;4.412;2023-05-07T01:48:45;18.80;99.90
27795;DHT22;15176;50.844;4.412;2023-05-07T01:51:11;18.90;99.90
27795;DHT22;15176;50.844;4.412;2023-05-07T01:53:38;19.00;99.90
27795;DHT22;15176;50.844;4.412;2023-05-07T01:56:04;19.00;99.90
27795;DHT22;15176;50.844;4.412;2023-05-07T01:58:30;19.10;99.90
27795;DHT22;15176;50.844;4.412;2023-05-07T02:00:56;18.90;99.90
27795;DHT22;15176;50.844;4.412;2023-05-07T02:03:22;18.90;99.90
27795;DHT22;15176;50.844;4.412;2023-05-07T02:05:48;18.50;99.90
27795;DHT22;15176;50.844;4.412;2023-05-07T02:08:13;18.40;99.90
27795;DHT22;15176;50.844;4.412;2023-05-07T02:10:39;18.40;99.90
27795;DHT22;15176;50.844;4.412;2023-05-07T02:13:05;18.40;99.90
27795;DHT22;15176;50.844;4.412;2023-05-07T02:15:30;18.50;99.90
27795;DHT22;15176;50.844;4.412;2023-05-07T02:18:04;18.50;99.90
27795;DHT22;15176;50.844;4.412;2023-05-07T02:20:30;18.50;99.90
27795;DHT22;15176;50.844;4.412;2023-05-07T02:22:56;18.50;99.90
27795;DHT22;15176;50.844;4.412;2023-05-07T02:25:22;18.70;99.90
27795;DHT22;15176;50.844;4.412;2023-05-07T02:27:48;18.90;99.90
27795;DHT22;15176;50.844;4.412;2023-05-07T02:30:14;19.00;99.90
27795;DHT22;15176;50.844;4.412;2023-05-07T02:32:40;19.00;99.90
27795;DHT22;15176;50.844;4.412;2023-05-07T02:35:07;18.80;99.90
27795;DHT22;15176;50.844;4.412;2023-05-07T02:37:32;18.70;99.90
27795;DHT22;15176;50.844;4.412;2023-05-07T02:39:58;18.80;99.90
27795;DHT22;15176;50.844;4.412;2023-05-07T02:42:24;18.80;99.90
27795;DHT22;15176;50.844;4.412;2023-05-07T02:44:49;18.80;99.90
27795;DHT22;15176;50.844;4.412;2023-05-07T02:47:16;18.80;99.90
27795;DHT22;15176;50.844;4.412;2023-05-07T02:49:41;18.90;99.90
27795;DHT22;15176;50.844;4.412;2023-05-07T02:52:08;18.90;99.90
27795;DHT22;15176;50.844;4.412;2023-05-07T02:54:34;19.00;99.90
27795;DHT22;15176;50.844;4.412;2023-05-07T02:56:59;19.10;99.90
27795;DHT22;15176;50.844;4.412;2023-05-07T02:59:26;19.00;99.90
27795;DHT22;15176;50.844;4.412;2023-05-07T03:01:51;18.90;99.90
27795;DHT22;15176;50.844;4.412;2023-05-07T03:04:17;18.80;99.90
27795;DHT22;15176;50.844;4.412;2023-05-07T03:06:43;18.90;99.90
27795;DHT22;15176;50.844;4.412;2023-05-07T03:09:09;18.70;99.90
27795;DHT22;15176;50.844;4.412;2023-05-07T03:11:34;18.80;99.90
27795;DHT22;15176;50.844;4.412;2023-05-07T03:14:01;18.80;99.90
27795;DHT22;15176;50.844;4.412;2023-05-07T03:16:27;19.00;99.90
27795;DHT22;15176;50.844;4.412;2023-05-07T03:18:52;18.90;99.90
27795;DHT22;15176;50.844;4.412;2023-05-07T03:21:18;18.70;99.90
27795;DHT22;15176;50.844;4.412;2023-05-07T03:23:44;18.50;99.90
27795;DHT22;15176;50.844;4.412;2023-05-07T03:26:10;18.80;99.90
27795;DHT22;15176;50.844;4.412;2023-05-07T03:28:36;18.90;99.90
27795;DHT22;15176;50.844;4.412;2023-05-07T03:31:02;19.00;99.90
27795;DHT22;15176;50.844;4.412;2023-05-07T03:33:28;19.10;99.90
27795;DHT22;15176;50.844;4.412;2023-05-07T03:35:54;19.10;99.90
27795;DHT22;15176;50.844;4.412;2023-05-07T03:38:19;19.10;99.90
27795;DHT22;15176;50.844;4.412;2023-05-07T03:40:45;18.80;99.90
27795;DHT22;15176;50.844;4.412;2023-05-07T03:43:11;18.80;99.90
27795;DHT22;15176;50.844;4.412;2023-05-07T03:45:37;18.80;99.90
27795;DHT22;15176;50.844;4.412;2023-05-07T03:48:03;18.90;99.90
27795;DHT22;15176;50.844;4.412;2023-05-07T03:50:29;18.80;99.90
27795;DHT22;15176;50.844;4.412;2023-05-07T03:52:55;18.60;99.90
27795;DHT22;15176;50.844;4.412;2023-05-07T03:55:20;18.50;99.90
27795;DHT22;15176;50.844;4.412;2023-05-07T03:57:46;18.70;99.90
27795;DHT22;15176;50.844;4.412;2023-05-07T04:00:12;18.60;99.90
27795;DHT22;15176;50.844;4.412;2023-05-07T04:02:38;18.40;99.90
27795;DHT22;15176;50.844;4.412;2023-05-07T04:05:04;18.30;99.90
27795;DHT22;15176;50.844;4.412;2023-05-07T04:07:30;18.20;99.90
27795;DHT22;15176;50.844;4.412;2023-05-07T04:09:58;18.20;99.90
27795;DHT22;15176;50.844;4.412;2023-05-07T04:12:23;18.40;99.90
27795;DHT22;15176;50.844;4.412;2023-05-07T04:14:49;18.60;99.90
27795;DHT22;15176;50.844;4.412;2023-05-07T04:17:15;18.70;99.90
27795;DHT22;15176;50.844;4.412;2023-05-07T04:19:41;18.60;99.90
27795;DHT22;15176;50.844;4.412;2023-05-07T04:22:11;18.80;99.90
27795;DHT22;15176;50.844;4.412;2023-05-07T04:24:37;19.00;99.90
27795;DHT22;15176;50.844;4.412;2023-05-07T04:27:02;19.10;99.90
27795;DHT22;15176;50.844;4.412;2023-05-07T04:29:28;19.10;99.90
27795;DHT22;15176;50.844;4.412;2023-05-07T04:31:54;19.10;99.90
27795;DHT22;15176;50.844;4.412;2023-05-07T04:34:22;19.40;99.90
27795;DHT22;15176;50.844;4.412;2023-05-07T04:36:48;19.30;99.90
27795;DHT22;15176;50.844;4.412;2023-05-07T04:39:14;19.20;99.90
27795;DHT22;15176;50.844;4.412;2023-05-07T04:41:40;19.10;99.90
27795;DHT22;15176;50.844;4.412;2023-05-07T04:44:05;18.90;99.90
27795;DHT22;15176;50.844;4.412;2023-05-07T04:46:31;18.80;99.90
27795;DHT22;15176;50.844;4.412;2023-05-07T04:48:57;18.90;99.90
27795;DHT22;15176;50.844;4.412;2023-05-07T04:51:23;19.00;99.90
27795;DHT22;15176;50.844;4.412;2023-05-07T04:53:49;19.10;99.90
27795;DHT22;15176;50.844;4.412;2023-05-07T04:56:14;19.10;99.90
27795;DHT22;15176;50.844;4.412;2023-05-07T04:58:40;19.00;99.90
27795;DHT22;15176;50.844;4.412;2023-05-07T05:01:06;18.90;99.90
27795;DHT22;15176;50.844;4.412;2023-05-07T05:03:31;18.80;99.90
27795;DHT22;15176;50.844;4.412;2023-05-07T05:05:57;18.90;99.90
27795;DHT22;15176;50.844;4.412;2023-05-07T05:08:25;19.00;99.90
27795;DHT22;15176;50.844;4.412;2023-05-07T05:10:51;18.80;99.90
27795;DHT22;15176;50.844;4.412;2023-05-07T05:13:16;18.90;99.90
27795;DHT22;15176;50.844;4.412;2023-05-07T05:15:43;19.00;99.90
27795;DHT22;15176;50.844;4.412;2023-05-07T05:18:08;19.10;99.90
27795;DHT22;15176;50.844;4.412;2023-05-07T05:20:34;18.90;99.90
27795;DHT22;15176;50.844;4.412;2023-05-07T05:23:00;18.90;99.90
27795;DHT22;15176;50.844;4.412;2023-05-07T05:25:25;18.70;99.90
27795;DHT22;15176;50.844;4.412;2023-05-07T05:27:51;18.90;99.90
27795;DHT22;15176;50.844;4.412;2023-05-07T05:30:17;19.00;99.90
27795;DHT22;15176;50.844;4.412;2023-05-07T05:32:42;19.20;99.90
27795;DHT22;15176;50.844;4.412;2023-05-07T05:35:08;19.30;99.90
27795;DHT22;15176;50.844;4.412;2023-05-07T05:37:34;19.40;99.90
27795;DHT22;15176;50.844;4.412;2023-05-07T05:40:00;19.30;99.90
27795;DHT22;15176;50.844;4.412;2023-05-07T05:42:26;19.30;99.90
27795;DHT22;15176;50.844;4.412;2023-05-07T05:44:51;19.30;99.90
27795;DHT22;15176;50.844;4.412;2023-05-07T05:47:17;19.10;99.90
27795;DHT22;15176;50.844;4.412;2023-05-07T05:49:43;19.40;99.90
27795;DHT22;15176;50.844;4.412;2023-05-07T05:52:09;19.60;99.90
27795;DHT22;15176;50.844;4.412;2023-05-07T05:54:35;19.60;99.90
27795;DHT22;15176;50.844;4.412;2023-05-07T05:57:00;19.60;99.90
27795;DHT22;15176;50.844;4.412;2023-05-07T05:59:29;19.60;99.90
27795;DHT22;15176;50.844;4.412;2023-05-07T06:01:55;19.50;99.90
27795;DHT22;15176;50.844;4.412;2023-05-07T06:04:21;19.50;99.90
27795;DHT22;15176;50.844;4.412;2023-05-07T06:06:48;19.70;99.90
27795;DHT22;15176;50.844;4.412;2023-05-07T06:09:14;19.50;99.90
27795;DHT22;15176;50.844;4.412;2023-05-07T06:11:40;19.00;99.90
27795;DHT22;15176;50.844;4.412;2023-05-07T06:14:06;18.60;99.90
27795;DHT22;15176;50.844;4.412;2023-05-07T06:16:32;18.70;99.90
27795;DHT22;15176;50.844;4.412;2023-05-07T06:18:58;18.30;99.90
27795;DHT22;15176;50.844;4.412;2023-05-07T06:21:24;18.00;99.90
27795;DHT22;15176;50.844;4.412;2023-05-07T06:23:49;17.90;99.90
27795;DHT22;15176;50.844;4.412;2023-05-07T06:26:17;17.90;99.90
27795;DHT22;15176;50.844;4.412;2023-05-07T06:28:42;17.70;99.90
27795;DHT22;15176;50.844;4.412;2023-05-07T06:31:15;17.70;99.90
27795;DHT22;15176;50.844;4.412;2023-05-07T06:33:42;17.70;99.90
27795;DHT22;15176;50.844;4.412;2023-05-07T06:36:08;17.70;99.90
27795;DHT22;15176;50.844;4.412;2023-05-07T06:38:33;17.70;99.90
27795;DHT22;15176;50.844;4.412;2023-05-07T06:40:59;17.50;99.90
27795;DHT22;15176;50.844;4.412;2023-05-07T06:43:25;17.50;99.90
27795;DHT22;15176;50.844;4.412;2023-05-07T06:45:50;17.40;99.90
27795;DHT22;15176;50.844;4.412;2023-05-07T06:48:17;17.30;99.90
27795;DHT22;15176;50.844;4.412;2023-05-07T06:50:42;17.30;99.90
27795;DHT22;15176;50.844;4.412;2023-05-07T06:53:08;17.60;99.90
27795;DHT22;15176;50.844;4.412;2023-05-07T06:55:34;17.60;99.90
27795;DHT22;15176;50.844;4.412;2023-05-07T06:57:59;17.70;99.90
27795;DHT22;15176;50.844;4.412;2023-05-07T07:00:29;17.70;99.90
27795;DHT22;15176;50.844;4.412;2023-05-07T07:02:56;17.70;99.90
27795;DHT22;15176;50.844;4.412;2023-05-07T07:05:21;17.70;99.90
27795;DHT22;15176;50.844;4.412;2023-05-07T07:07:47;17.90;99.90
27795;DHT22;15176;50.844;4.412;2023-05-07T07:10:22;18.00;99.90
27795;DHT22;15176;50.844;4.412;2023-05-07T07:12:48;18.00;99.90
27795;DHT22;15176;50.844;4.412;2023-05-07T07:15:14;17.90;99.90
27795;DHT22;15176;50.844;4.412;2023-05-07T07:17:40;17.90;99.90
27795;DHT22;15176;50.844;4.412;2023-05-07T07:20:07;18.00;99.90
27795;DHT22;15176;50.844;4.412;2023-05-07T07:22:33;17.90;99.90
27795;DHT22;15176;50.844;4.412;2023-05-07T07:24:59;17.80;99.90
27795;DHT22;15176;50.844;4.412;2023-05-07T07:27:24;17.80;99.90
27795;DHT22;15176;50.844;4.412;2023-05-07T07:29:51;17.70;99.90
27795;DHT22;15176;50.844;4.412;2023-05-07T07:32:17;17.60;99.90
27795;DHT22;15176;50.844;4.412;2023-05-07T07:34:43;17.60;99.90
27795;DHT22;15176;50.844;4.412;2023-05-07T07:37:08;17.60;99.90
27795;DHT22;15176;50.844;4.412;2023-05-07T07:39:34;17.80;99.90
27795;DHT22;15176;50.844;4.412;2023-05-07T07:42:01;17.90;99.90
27795;DHT22;15176;50.844;4.412;2023-05-07T07:44:28;17.80;99.90
27795;DHT22;15176;50.844;4.412;2023-05-07T07:46:53;18.00;99.90
27795;DHT22;15176;50.844;4.412;2023-05-07T07:49:19;17.90;99.90
27795;DHT22;15176;50.844;4.412;2023-05-07T07:51:45;17.90;99.90
27795;DHT22;15176;50.844;4.412;2023-05-07T07:54:11;18.00;99.90
27795;DHT22;15176;50.844;4.412;2023-05-07T07:56:37;18.10;99.90
27795;DHT22;15176;50.844;4.412;2023-05-07T07:59:03;18.10;99.90
27795;DHT22;15176;50.844;4.412;2023-05-07T08:01:32;18.20;99.90
27795;DHT22;15176;50.844;4.412;2023-05-07T08:03:58;18.30;99.90
27795;DHT22;15176;50.844;4.412;2023-05-07T08:06:24;18.10;99.90
27795;DHT22;15176;50.844;4.412;2023-05-07T08:08:51;18.20;99.90
27795;DHT22;15176;50.844;4.412;2023-05-07T08:11:17;18.10;99.90
27795;DHT22;15176;50.844;4.412;2023-05-07T08:13:43;18.30;99.90
27795;DHT22;15176;50.844;4.412;2023-05-07T08:16:08;18.40;99.90
27795;DHT22;15176;50.844;4.412;2023-05-07T08:18:36;18.10;99.90
27795;DHT22;15176;50.844;4.412;2023-05-07T08:21:01;18.00;99.90
27795;DHT22;15176;50.844;4.412;2023-05-07T08:23:27;18.00;99.90
27795;DHT22;15176;50.844;4.412;2023-05-07T08:25:53;18.20;99.90
27795;DHT22;15176;50.844;4.412;2023-05-07T08:28:19;18.00;99.90
27795;DHT22;15176;50.844;4.412;2023-05-07T08:30:46;18.00;99.90
27795;DHT22;15176;50.844;4.412;2023-05-07T08:33:12;18.00;99.90
27795;DHT22;15176;50.844;4.412;2023-05-07T08:35:38;18.10;99.90
27795;DHT22;15176;50.844;4.412;2023-05-07T08:38:04;18.20;99.90
27795;DHT22;15176;50.844;4.412;2023-05-07T08:40:35;18.20;99.90
27795;DHT22;15176;50.844;4.412;2023-05-07T08:43:02;18.30;99.90
27795;DHT22;15176;50.844;4.412;2023-05-07T08:45:30;18.10;99.90
27795;DHT22;15176;50.844;4.412;2023-05-07T08:47:59;18.00;99.90
27795;DHT22;15176;50.844;4.412;2023-05-07T08:50:27;18.20;99.90
27795;DHT22;15176;50.844;4.412;2023-05-07T08:52:53;18.20;99.90
27795;DHT22;15176;50.844;4.412;2023-05-07T08:55:20;18.50;99.90
27795;DHT22;15176;50.844;4.412;2023-05-07T08:57:45;18.50;99.90
27795;DHT22;15176;50.844;4.412;2023-05-07T09:00:14;18.70;99.90
27795;DHT22;15176;50.844;4.412;2023-05-07T09:02:40;18.80;99.90
27795;DHT22;15176;50.844;4.412;2023-05-07T09:05:06;18.70;99.90
27795;DHT22;15176;50.844;4.412;2023-05-07T09:07:32;18.60;99.90
27795;DHT22;15176;50.844;4.412;2023-05-07T09:09:58;18.60;99.90
27795;DHT22;15176;50.844;4.412;2023-05-07T09:12:24;18.70;99.90
27795;DHT22;15176;50.844;4.412;2023-05-07T09:14:50;18.90;99.90
27795;DHT22;15176;50.844;4.412;2023-05-07T09:17:16;18.90;99.90
27795;DHT22;15176;50.844;4.412;2023-05-07T09:19:44;19.00;99.90
27795;DHT22;15176;50.844;4.412;2023-05-07T09:22:11;19.10;99.90
27795;DHT22;15176;50.844;4.412;2023-05-07T09:24:37;19.10;99.90
27795;DHT22;15176;50.844;4.412;2023-05-07T09:27:07;19.10;99.90
27795;DHT22;15176;50.844;4.412;2023-05-07T09:29:34;19.00;99.90
27795;DHT22;15176;50.844;4.412;2023-05-07T09:32:04;19.10;99.90
27795;DHT22;15176;50.844;4.412;2023-05-07T09:34:30;19.40;99.90
27795;DHT22;15176;50.844;4.412;2023-05-07T09:37:00;19.90;99.90
27795;DHT22;15176;50.844;4.412;2023-05-07T09:39:26;19.70;99.90
27795;DHT22;15176;50.844;4.412;2023-05-07T09:42:03;19.20;99.90
27795;DHT22;15176;50.844;4.412;2023-05-07T09:44:32;19.10;99.90
27795;DHT22;15176;50.844;4.412;2023-05-07T09:46:59;18.90;99.90
27795;DHT22;15176;50.844;4.412;2023-05-07T09:49:28;18.80;99.90
27795;DHT22;15176;50.844;4.412;2023-05-07T09:51:58;18.70;99.90
27795;DHT22;15176;50.844;4.412;2023-05-07T09:54:25;18.80;99.90
27795;DHT22;15176;50.844;4.412;2023-05-07T09:56:52;19.00;99.90
27795;DHT22;15176;50.844;4.412;2023-05-07T09:59:18;19.10;99.90
27795;DHT22;15176;50.844;4.412;2023-05-07T10:01:45;19.50;99.90
27795;DHT22;15176;50.844;4.412;2023-05-07T10:04:12;19.40;99.90
27795;DHT22;15176;50.844;4.412;2023-05-07T10:06:38;19.40;99.90
27795;DHT22;15176;50.844;4.412;2023-05-07T10:09:04;19.30;99.90
27795;DHT22;15176;50.844;4.412;2023-05-07T10:11:34;19.40;99.90
27795;DHT22;15176;50.844;4.412;2023-05-07T10:14:04;19.40;99.90
27795;DHT22;15176;50.844;4.412;2023-05-07T10:16:35;19.50;99.90
27795;DHT22;15176;50.844;4.412;2023-05-07T10:19:06;19.70;99.90
27795;DHT22;15176;50.844;4.412;2023-05-07T10:21:36;19.60;99.90
27795;DHT22;15176;50.844;4.412;2023-05-07T10:24:09;19.60;99.90
27795;DHT22;15176;50.844;4.412;2023-05-07T10:26:44;19.70;99.90
27795;DHT22;15176;50.844;4.412;2023-05-07T10:29:32;19.90;99.90
27795;DHT22;15176;50.844;4.412;2023-05-07T10:32:20;19.90;99.90
27795;DHT22;15176;50.844;4.412;2023-05-07T10:34:53;19.70;99.90
27795;DHT22;15176;50.844;4.412;2023-05-07T10:37:21;19.80;99.90
27795;DHT22;15176;50.844;4.412;2023-05-07T10:39:47;19.20;99.90
27795;DHT22;15176;50.844;4.412;2023-05-07T10:42:14;19.40;99.90
27795;DHT22;15176;50.844;4.412;2023-05-07T10:44:40;19.20;99.90
27795;DHT22;15176;50.844;4.412;2023-05-07T10:47:10;19.00;99.90
27795;DHT22;15176;50.844;4.412;2023-05-07T10:52:21;19.00;99.90
27795;DHT22;15176;50.844;4.412;2023-05-07T10:54:47;19.00;99.90
27795;DHT22;15176;50.844;4.412;2023-05-07T10:59:57;19.10;99.90
27795;DHT22;15176;50.844;4.412;2023-05-07T11:02:22;19.50;99.90
27795;DHT22;15176;50.844;4.412;2023-05-07T11:05:22;19.50;99.90
27795;DHT22;15176;50.844;4.412;2023-05-07T11:08:00;19.70;99.90
27795;DHT22;15176;50.844;4.412;2023-05-07T11:10:54;19.80;99.90
27795;DHT22;15176;50.844;4.412;2023-05-07T11:13:49;19.40;99.90
27795;DHT22;15176;50.844;4.412;2023-05-07T11:16:20;19.70;99.90
27795;DHT22;15176;50.844;4.412;2023-05-07T11:18:48;19.60;99.90
27795;DHT22;15176;50.844;4.412;2023-05-07T11:21:34;19.40;99.90
27795;DHT22;15176;50.844;4.412;2023-05-07T11:24:01;19.30;99.90
27795;DHT22;15176;50.844;4.412;2023-05-07T11:26:49;19.50;99.90
27795;DHT22;15176;50.844;4.412;2023-05-07T11:29:20;19.60;99.90
27795;DHT22;15176;50.844;4.412;2023-05-07T11:31:51;19.40;99.90
27795;DHT22;15176;50.844;4.412;2023-05-07T11:34:25;19.10;99.90
27795;DHT22;15176;50.844;4.412;2023-05-07T11:36:53;19.20;99.90
27795;DHT22;15176;50.844;4.412;2023-05-07T11:39:28;19.50;99.90
27795;DHT22;15176;50.844;4.412;2023-05-07T11:41:55;19.40;99.90
27795;DHT22;15176;50.844;4.412;2023-05-07T11:44:21;19.20;99.90
27795;DHT22;15176;50.844;4.412;2023-05-07T11:46:47;19.30;99.90
27795;DHT22;15176;50.844;4.412;2023-05-07T11:49:15;19.30;99.90
27795;DHT22;15176;50.844;4.412;2023-05-07T11:51:41;19.50;99.90
27795;DHT22;15176;50.844;4.412;2023-05-07T11:54:08;19.80;99.90
27795;DHT22;15176;50.844;4.412;2023-05-07T11:56:37;19.50;99.90
27795;DHT22;15176;50.844;4.412;2023-05-07T11:59:03;19.20;99.90
27795;DHT22;15176;50.844;4.412;2023-05-07T12:01:28;19.20;99.90
27795;DHT22;15176;50.844;4.412;2023-05-07T12:03:56;19.20;99.90
27795;DHT22;15176;50.844;4.412;2023-05-07T12:06:22;19.50;99.90
27795;DHT22;15176;50.844;4.412;2023-05-07T12:08:48;19.70;99.90
27795;DHT22;15176;50.844;4.412;2023-05-07T12:11:22;19.60;99.90
27795;DHT22;15176;50.844;4.412;2023-05-07T12:13:48;19.30;99.90
27795;DHT22;15176;50.844;4.412;2023-05-07T12:16:14;19.20;99.90
27795;DHT22;15176;50.844;4.412;2023-05-07T12:18:41;19.40;99.90
27795;DHT22;15176;50.844;4.412;2023-05-07T12:21:09;19.60;99.90
27795;DHT22;15176;50.844;4.412;2023-05-07T12:23:36;19.40;99.90
27795;DHT22;15176;50.844;4.412;2023-05-07T12:26:02;19.40;99.90
27795;DHT22;15176;50.844;4.412;2023-05-07T12:28:28;19.50;99.90
27795;DHT22;15176;50.844;4.412;2023-05-07T12:30:56;19.60;99.90
27795;DHT22;15176;50.844;4.412;2023-05-07T12:33:25;19.70;99.90
27795;DHT22;15176;50.844;4.412;2023-05-07T12:35:53;20.10;99.90
27795;DHT22;15176;50.844;4.412;2023-05-07T12:38:19;20.30;99.90
27795;DHT22;15176;50.844;4.412;2023-05-07T12:40:47;20.30;99.90
27795;DHT22;15176;50.844;4.412;2023-05-07T12:43:26;20.40;99.90
27795;DHT22;15176;50.844;4.412;2023-05-07T12:45:55;20.60;99.90
27795;DHT22;15176;50.844;4.412;2023-05-07T12:48:22;20.80;99.90
27795;DHT22;15176;50.844;4.412;2023-05-07T12:50:52;20.90;99.90
27795;DHT22;15176;50.844;4.412;2023-05-07T12:53:20;20.50;99.90
27795;DHT22;15176;50.844;4.412;2023-05-07T12:55:48;20.50;99.90
27795;DHT22;15176;50.844;4.412;2023-05-07T13:00:50;20.70;99.90
27795;DHT22;15176;50.844;4.412;2023-05-07T13:03:28;20.60;99.90
27795;DHT22;15176;50.844;4.412;2023-05-07T13:06:03;20.50;99.90
27795;DHT22;15176;50.844;4.412;2023-05-07T13:08:34;20.70;99.90
27795;DHT22;15176;50.844;4.412;2023-05-07T13:11:00;20.80;99.90
27795;DHT22;15176;50.844;4.412;2023-05-07T13:13:30;21.00;99.90
27795;DHT22;15176;50.844;4.412;2023-05-07T13:15:56;20.80;99.90
27795;DHT22;15176;50.844;4.412;2023-05-07T13:18:23;20.20;99.90
27795;DHT22;15176;50.844;4.412;2023-05-07T13:20:49;20.00;99.90
27795;DHT22;15176;50.844;4.412;2023-05-07T13:23:17;20.30;99.90
27795;DHT22;15176;50.844;4.412;2023-05-07T13:25:42;20.60;99.90
27795;DHT22;15176;50.844;4.412;2023-05-07T13:28:08;20.80;99.90
27795;DHT22;15176;50.844;4.412;2023-05-07T13:30:34;20.50;99.90
27795;DHT22;15176;50.844;4.412;2023-05-07T13:33:00;20.20;99.90
27795;DHT22;15176;50.844;4.412;2023-05-07T13:35:26;19.90;99.90
27795;DHT22;15176;50.844;4.412;2023-05-07T13:37:51;20.00;99.90
27795;DHT22;15176;50.844;4.412;2023-05-07T13:40:18;20.30;99.90
27795;DHT22;15176;50.844;4.412;2023-05-07T13:42:44;20.30;99.90
27795;DHT22;15176;50.844;4.412;2023-05-07T13:45:10;20.20;99.90
27795;DHT22;15176;50.844;4.412;2023-05-07T13:47:36;20.10;99.90
27795;DHT22;15176;50.844;4.412;2023-05-07T13:50:01;20.20;99.90
27795;DHT22;15176;50.844;4.412;2023-05-07T13:52:28;20.20;99.90
27795;DHT22;15176;50.844;4.412;2023-05-07T13:54:54;20.00;99.90
27795;DHT22;15176;50.844;4.412;2023-05-07T13:57:20;20.00;99.90
27795;DHT22;15176;50.844;4.412;2023-05-07T13:59:46;20.10;99.90
27795;DHT22;15176;50.844;4.412;2023-05-07T14:02:11;20.20;99.90
27795;DHT22;15176;50.844;4.412;2023-05-07T14:04:37;20.50;99.90
27795;DHT22;15176;50.844;4.412;2023-05-07T14:07:03;20.50;99.90
27795;DHT22;15176;50.844;4.412;2023-05-07T14:09:29;20.40;99.90
27795;DHT22;15176;50.844;4.412;2023-05-07T14:11:56;20.30;99.90
27795;DHT22;15176;50.844;4.412;2023-05-07T14:14:22;20.50;99.90
27795;DHT22;15176;50.844;4.412;2023-05-07T14:16:48;20.50;99.90
27795;DHT22;15176;50.844;4.412;2023-05-07T14:19:13;20.40;99.90
27795;DHT22;15176;50.844;4.412;2023-05-07T14:21:39;20.70;99.90
27795;DHT22;15176;50.844;4.412;2023-05-07T14:24:07;20.90;99.90
27795;DHT22;15176;50.844;4.412;2023-05-07T14:26:33;20.50;99.90
27795;DHT22;15176;50.844;4.412;2023-05-07T14:28:59;20.50;99.90
27795;DHT22;15176;50.844;4.412;2023-05-07T14:31:25;20.60;99.90
27795;DHT22;15176;50.844;4.412;2023-05-07T14:33:54;20.60;99.90
27795;DHT22;15176;50.844;4.412;2023-05-07T14:36:21;20.70;99.90
27795;DHT22;15176;50.844;4.412;2023-05-07T14:38:49;20.70;99.90
27795;DHT22;15176;50.844;4.412;2023-05-07T14:41:15;20.50;99.90
27795;DHT22;15176;50.844;4.412;2023-05-07T14:43:41;20.50;99.90
27795;DHT22;15176;50.844;4.412;2023-05-07T14:46:07;20.50;99.90
27795;DHT22;15176;50.844;4.412;2023-05-07T14:48:32;20.20;99.90
27795;DHT22;15176;50.844;4.412;2023-05-07T14:50:58;20.10;99.90
27795;DHT22;15176;50.844;4.412;2023-05-07T14:53:24;20.00;99.90
27795;DHT22;15176;50.844;4.412;2023-05-07T14:55:50;20.20;99.90
27795;DHT22;15176;50.844;4.412;2023-05-07T14:58:16;20.20;99.90
27795;DHT22;15176;50.844;4.412;2023-05-07T15:00:43;20.30;99.90
27795;DHT22;15176;50.844;4.412;2023-05-07T15:03:09;20.40;99.90
27795;DHT22;15176;50.844;4.412;2023-05-07T15:05:36;20.50;99.90
27795;DHT22;15176;50.844;4.412;2023-05-07T15:08:02;20.60;99.90
27795;DHT22;15176;50.844;4.412;2023-05-07T15:10:28;20.40;99.90
27795;DHT22;15176;50.844;4.412;2023-05-07T15:12:54;20.30;99.90
27795;DHT22;15176;50.844;4.412;2023-05-07T15:15:19;20.20;99.90
27795;DHT22;15176;50.844;4.412;2023-05-07T15:17:45;20.00;99.90
27795;DHT22;15176;50.844;4.412;2023-05-07T15:20:11;20.10;99.90
27795;DHT22;15176;50.844;4.412;2023-05-07T15:22:37;20.10;99.90
27795;DHT22;15176;50.844;4.412;2023-05-07T15:25:03;20.10;99.90
27795;DHT22;15176;50.844;4.412;2023-05-07T15:27:30;20.20;99.90
27795;DHT22;15176;50.844;4.412;2023-05-07T15:29:56;20.20;99.90
27795;DHT22;15176;50.844;4.412;2023-05-07T15:32:22;20.10;99.90
27795;DHT22;15176;50.844;4.412;2023-05-07T15:34:48;19.90;99.90
27795;DHT22;15176;50.844;4.412;2023-05-07T15:37:14;19.60;99.90